sensor_id;sensor_type;location;lat;lon;timestamp;P1;durP1;ratioP1;P2;durP2;ratioP2
18532;SDS011;9396;51.510;11.934;2023-06-01T00:00:48;2.43;;;1.50;;
18532;SDS011;9396;51.510;11.934;2023-06-01T00:03:15;3.07;;;1.47;;
18532;SDS011;9396;51.510;11.934;2023-06-01T00:05:42;3.50;;;1.57;;
18532;SDS011;9396;51.510;11.934;2023-06-01T00:08:10;2.87;;;1.50;;
18532;SDS011;9396;51.510;11.934;2023-06-01T00:10:36;4.43;;;1.70;;
18532;SDS011;9396;51.510;11.934;2023-06-01T00:13:03;6.67;;;1.80;;
18532;SDS011;9396;51.510;11.934;2023-06-01T00:15:30;2.30;;;1.50;;
18532;SDS011;9396;51.510;11.934;2023-06-01T00:17:56;2.67;;;1.30;;
18532;SDS011;9396;51.510;11.934;2023-06-01T00:20:25;2.20;;;1.60;;
18532;SDS011;9396;51.510;11.934;2023-06-01T00:22:54;5.33;;;1.67;;
18532;SDS011;9396;51.510;11.934;2023-06-01T00:25:22;3.17;;;1.70;;
18532;SDS011;9396;51.510;11.934;2023-06-01T00:27:48;2.33;;;1.60;;
18532;SDS011;9396;51.510;11.934;2023-06-01T00:30:15;3.30;;;1.70;;
18532;SDS011;9396;51.510;11.934;2023-06-01T00:32:42;1.90;;;1.40;;
18532;SDS011;9396;51.510;11.934;2023-06-01T00:35:08;2.17;;;1.43;;
18532;SDS011;9396;51.510;11.934;2023-06-01T00:37:35;4.80;;;1.57;;
18532;SDS011;9396;51.510;11.934;2023-06-01T00:40:02;3.70;;;1.60;;
18532;SDS011;9396;51.510;11.934;2023-06-01T00:42:30;2.63;;;1.40;;
18532;SDS011;9396;51.510;11.934;2023-06-01T00:44:57;4.83;;;1.70;;
18532;SDS011;9396;51.510;11.934;2023-06-01T00:47:24;2.57;;;1.63;;
18532;SDS011;9396;51.510;11.934;2023-06-01T00:49:51;5.40;;;1.70;;
18532;SDS011;9396;51.510;11.934;2023-06-01T00:52:18;2.53;;;1.57;;
18532;SDS011;9396;51.510;11.934;2023-06-01T00:54:46;4.87;;;1.63;;
18532;SDS011;9396;51.510;11.934;2023-06-01T00:57:12;2.37;;;1.93;;
18532;SDS011;9396;51.510;11.934;2023-06-01T00:59:41;3.03;;;1.80;;
18532;SDS011;9396;51.510;11.934;2023-06-01T01:02:07;2.00;;;1.40;;
18532;SDS011;9396;51.510;11.934;2023-06-01T01:04:34;6.53;;;1.80;;
18532;SDS011;9396;51.510;11.934;2023-06-01T01:07:02;2.47;;;1.30;;
18532;SDS011;9396;51.510;11.934;2023-06-01T01:09:49;4.93;;;1.63;;
18532;SDS011;9396;51.510;11.934;2023-06-01T01:12:19;2.60;;;1.23;;
18532;SDS011;9396;51.510;11.934;2023-06-01T01:14:55;4.00;;;1.60;;
18532;SDS011;9396;51.510;11.934;2023-06-01T01:17:26;3.47;;;1.87;;
18532;SDS011;9396;51.510;11.934;2023-06-01T01:19:59;4.07;;;1.60;;
18532;SDS011;9396;51.510;11.934;2023-06-01T01:22:43;3.57;;;1.93;;
18532;SDS011;9396;51.510;11.934;2023-06-01T01:25:25;3.93;;;1.90;;
18532;SDS011;9396;51.510;11.934;2023-06-01T01:28:10;4.63;;;1.87;;
18532;SDS011;9396;51.510;11.934;2023-06-01T01:30:51;1.80;;;1.40;;
18532;SDS011;9396;51.510;11.934;2023-06-01T01:33:20;4.37;;;1.67;;
18532;SDS011;9396;51.510;11.934;2023-06-01T01:35:47;3.63;;;1.83;;
18532;SDS011;9396;51.510;11.934;2023-06-01T01:38:15;3.20;;;1.47;;
18532;SDS011;9396;51.510;11.934;2023-06-01T01:40:42;2.67;;;1.83;;
18532;SDS011;9396;51.510;11.934;2023-06-01T01:43:09;3.03;;;1.70;;
18532;SDS011;9396;51.510;11.934;2023-06-01T01:45:37;2.40;;;1.60;;
18532;SDS011;9396;51.510;11.934;2023-06-01T01:48:05;4.40;;;2.37;;
18532;SDS011;9396;51.510;11.934;2023-06-01T01:50:52;4.97;;;1.83;;
18532;SDS011;9396;51.510;11.934;2023-06-01T01:53:22;2.40;;;1.70;;
18532;SDS011;9396;51.510;11.934;2023-06-01T01:55:52;4.23;;;1.60;;
18532;SDS011;9396;51.510;11.934;2023-06-01T01:58:19;3.30;;;1.60;;
18532;SDS011;9396;51.510;11.934;2023-06-01T02:00:47;4.97;;;1.70;;
18532;SDS011;9396;51.510;11.934;2023-06-01T02:03:16;2.93;;;1.80;;
18532;SDS011;9396;51.510;11.934;2023-06-01T02:05:43;3.67;;;1.90;;
18532;SDS011;9396;51.510;11.934;2023-06-01T02:08:10;5.50;;;1.97;;
18532;SDS011;9396;51.510;11.934;2023-06-01T02:10:37;1.67;;;1.47;;
18532;SDS011;9396;51.510;11.934;2023-06-01T02:13:05;2.13;;;1.70;;
18532;SDS011;9396;51.510;11.934;2023-06-01T02:15:32;3.90;;;1.93;;
18532;SDS011;9396;51.510;11.934;2023-06-01T02:18:00;4.00;;;1.97;;
18532;SDS011;9396;51.510;11.934;2023-06-01T02:20:27;6.13;;;1.70;;
18532;SDS011;9396;51.510;11.934;2023-06-01T02:22:54;3.23;;;1.87;;
18532;SDS011;9396;51.510;11.934;2023-06-01T02:25:20;4.27;;;1.87;;
18532;SDS011;9396;51.510;11.934;2023-06-01T02:27:47;4.07;;;2.03;;
18532;SDS011;9396;51.510;11.934;2023-06-01T02:30:14;3.57;;;2.03;;
18532;SDS011;9396;51.510;11.934;2023-06-01T02:32:40;3.97;;;2.23;;
18532;SDS011;9396;51.510;11.934;2023-06-01T02:35:11;5.17;;;2.20;;
18532;SDS011;9396;51.510;11.934;2023-06-01T02:37:38;4.23;;;2.20;;
18532;SDS011;9396;51.510;11.934;2023-06-01T02:40:05;4.30;;;1.90;;
18532;SDS011;9396;51.510;11.934;2023-06-01T02:42:36;4.37;;;2.33;;
18532;SDS011;9396;51.510;11.934;2023-06-01T02:45:03;4.47;;;2.50;;
18532;SDS011;9396;51.510;11.934;2023-06-01T02:47:30;4.77;;;2.17;;
18532;SDS011;9396;51.510;11.934;2023-06-01T02:49:57;6.67;;;2.40;;
18532;SDS011;9396;51.510;11.934;2023-06-01T02:52:25;3.43;;;2.30;;
18532;SDS011;9396;51.510;11.934;2023-06-01T02:54:53;6.83;;;2.77;;
18532;SDS011;9396;51.510;11.934;2023-06-01T02:57:20;3.63;;;2.27;;
18532;SDS011;9396;51.510;11.934;2023-06-01T02:59:47;5.63;;;2.43;;
18532;SDS011;9396;51.510;11.934;2023-06-01T03:02:13;6.60;;;2.87;;
18532;SDS011;9396;51.510;11.934;2023-06-01T03:04:40;6.67;;;2.47;;
18532;SDS011;9396;51.510;11.934;2023-06-01T03:07:08;5.90;;;2.80;;
18532;SDS011;9396;51.510;11.934;2023-06-01T03:09:36;6.80;;;2.97;;
18532;SDS011;9396;51.510;11.934;2023-06-01T03:12:03;4.50;;;2.97;;
18532;SDS011;9396;51.510;11.934;2023-06-01T03:14:31;3.33;;;2.40;;
18532;SDS011;9396;51.510;11.934;2023-06-01T03:16:58;4.20;;;2.80;;
18532;SDS011;9396;51.510;11.934;2023-06-01T03:19:24;8.47;;;3.10;;
18532;SDS011;9396;51.510;11.934;2023-06-01T03:21:51;4.07;;;3.00;;
18532;SDS011;9396;51.510;11.934;2023-06-01T03:24:17;9.30;;;3.40;;
18532;SDS011;9396;51.510;11.934;2023-06-01T03:26:46;7.10;;;3.53;;
18532;SDS011;9396;51.510;11.934;2023-06-01T03:29:12;9.30;;;4.00;;
18532;SDS011;9396;51.510;11.934;2023-06-01T03:31:39;6.23;;;4.20;;
18532;SDS011;9396;51.510;11.934;2023-06-01T03:34:06;9.83;;;3.87;;
18532;SDS011;9396;51.510;11.934;2023-06-01T03:36:33;7.23;;;3.63;;
18532;SDS011;9396;51.510;11.934;2023-06-01T03:39:01;12.23;;;4.00;;
18532;SDS011;9396;51.510;11.934;2023-06-01T03:41:33;8.87;;;4.03;;
18532;SDS011;9396;51.510;11.934;2023-06-01T03:44:01;11.97;;;4.43;;
18532;SDS011;9396;51.510;11.934;2023-06-01T03:46:27;8.33;;;3.60;;
18532;SDS011;9396;51.510;11.934;2023-06-01T03:48:54;10.57;;;4.33;;
18532;SDS011;9396;51.510;11.934;2023-06-01T03:51:21;15.87;;;4.50;;
18532;SDS011;9396;51.510;11.934;2023-06-01T03:53:47;5.47;;;3.53;;
18532;SDS011;9396;51.510;11.934;2023-06-01T03:56:14;7.63;;;4.10;;
18532;SDS011;9396;51.510;11.934;2023-06-01T03:58:41;11.23;;;3.90;;
18532;SDS011;9396;51.510;11.934;2023-06-01T04:01:09;7.27;;;3.70;;
18532;SDS011;9396;51.510;11.934;2023-06-01T04:03:38;8.00;;;3.37;;
18532;SDS011;9396;51.510;11.934;2023-06-01T04:06:04;6.53;;;4.10;;
18532;SDS011;9396;51.510;11.934;2023-06-01T04:08:37;5.73;;;3.40;;
18532;SDS011;9396;51.510;11.934;2023-06-01T04:11:07;8.87;;;4.33;;
18532;SDS011;9396;51.510;11.934;2023-06-01T04:13:34;4.10;;;3.40;;
18532;SDS011;9396;51.510;11.934;2023-06-01T04:16:00;7.40;;;3.80;;
18532;SDS011;9396;51.510;11.934;2023-06-01T04:18:28;7.50;;;3.93;;
18532;SDS011;9396;51.510;11.934;2023-06-01T04:20:55;7.47;;;4.00;;
18532;SDS011;9396;51.510;11.934;2023-06-01T04:23:22;8.63;;;4.60;;
18532;SDS011;9396;51.510;11.934;2023-06-01T04:25:48;8.53;;;4.20;;
18532;SDS011;9396;51.510;11.934;2023-06-01T04:28:16;10.43;;;5.17;;
18532;SDS011;9396;51.510;11.934;2023-06-01T04:30:43;8.67;;;5.23;;
18532;SDS011;9396;51.510;11.934;2023-06-01T04:33:12;9.17;;;4.70;;
18532;SDS011;9396;51.510;11.934;2023-06-01T04:35:40;8.90;;;5.23;;
18532;SDS011;9396;51.510;11.934;2023-06-01T04:38:08;11.37;;;5.60;;
18532;SDS011;9396;51.510;11.934;2023-06-01T04:40:35;11.67;;;6.00;;
18532;SDS011;9396;51.510;11.934;2023-06-01T04:43:02;10.60;;;5.57;;
18532;SDS011;9396;51.510;11.934;2023-06-01T04:45:28;10.67;;;6.00;;
18532;SDS011;9396;51.510;11.934;2023-06-01T04:47:58;10.33;;;5.63;;
18532;SDS011;9396;51.510;11.934;2023-06-01T04:50:25;13.17;;;6.40;;
18532;SDS011;9396;51.510;11.934;2023-06-01T04:52:55;11.33;;;6.80;;
18532;SDS011;9396;51.510;11.934;2023-06-01T04:55:22;12.73;;;6.77;;
18532;SDS011;9396;51.510;11.934;2023-06-01T04:57:48;13.93;;;7.57;;
18532;SDS011;9396;51.510;11.934;2023-06-01T05:00:15;13.93;;;9.00;;
18532;SDS011;9396;51.510;11.934;2023-06-01T05:02:44;15.87;;;9.27;;
18532;SDS011;9396;51.510;11.934;2023-06-01T05:05:12;15.63;;;10.13;;
18532;SDS011;9396;51.510;11.934;2023-06-01T05:07:40;18.10;;;10.57;;
18532;SDS011;9396;51.510;11.934;2023-06-01T05:10:09;18.87;;;10.37;;
18532;SDS011;9396;51.510;11.934;2023-06-01T05:12:37;15.40;;;10.67;;
18532;SDS011;9396;51.510;11.934;2023-06-01T05:15:05;19.00;;;11.97;;
18532;SDS011;9396;51.510;11.934;2023-06-01T05:17:33;20.47;;;11.70;;
18532;SDS011;9396;51.510;11.934;2023-06-01T05:20:00;18.97;;;12.93;;
18532;SDS011;9396;51.510;11.934;2023-06-01T05:22:27;20.67;;;11.63;;
18532;SDS011;9396;51.510;11.934;2023-06-01T05:24:54;22.67;;;12.83;;
18532;SDS011;9396;51.510;11.934;2023-06-01T05:27:23;27.00;;;12.43;;
18532;SDS011;9396;51.510;11.934;2023-06-01T05:29:49;20.50;;;13.17;;
18532;SDS011;9396;51.510;11.934;2023-06-01T05:32:16;22.97;;;13.80;;
18532;SDS011;9396;51.510;11.934;2023-06-01T05:34:43;19.50;;;13.90;;
18532;SDS011;9396;51.510;11.934;2023-06-01T05:37:10;23.53;;;15.43;;
18532;SDS011;9396;51.510;11.934;2023-06-01T05:39:36;24.20;;;15.47;;
18532;SDS011;9396;51.510;11.934;2023-06-01T05:42:03;28.67;;;16.43;;
18532;SDS011;9396;51.510;11.934;2023-06-01T05:44:33;24.43;;;15.97;;
18532;SDS011;9396;51.510;11.934;2023-06-01T05:46:59;29.33;;;17.33;;
18532;SDS011;9396;51.510;11.934;2023-06-01T05:49:26;23.43;;;16.10;;
18532;SDS011;9396;51.510;11.934;2023-06-01T05:51:56;23.83;;;16.67;;
18532;SDS011;9396;51.510;11.934;2023-06-01T05:54:22;24.63;;;16.57;;
18532;SDS011;9396;51.510;11.934;2023-06-01T05:56:49;23.93;;;15.87;;
18532;SDS011;9396;51.510;11.934;2023-06-01T05:59:16;26.97;;;17.23;;
18532;SDS011;9396;51.510;11.934;2023-06-01T06:01:44;26.33;;;15.60;;
18532;SDS011;9396;51.510;11.934;2023-06-01T06:04:10;24.00;;;15.03;;
18532;SDS011;9396;51.510;11.934;2023-06-01T06:06:37;20.07;;;14.20;;
18532;SDS011;9396;51.510;11.934;2023-06-01T06:09:04;23.63;;;15.13;;
18532;SDS011;9396;51.510;11.934;2023-06-01T06:11:30;25.03;;;14.77;;
18532;SDS011;9396;51.510;11.934;2023-06-01T06:13:57;24.40;;;14.97;;
18532;SDS011;9396;51.510;11.934;2023-06-01T06:16:24;20.43;;;13.73;;
18532;SDS011;9396;51.510;11.934;2023-06-01T06:18:52;22.47;;;15.03;;
18532;SDS011;9396;51.510;11.934;2023-06-01T06:21:18;25.60;;;16.27;;
18532;SDS011;9396;51.510;11.934;2023-06-01T06:23:45;25.07;;;17.57;;
18532;SDS011;9396;51.510;11.934;2023-06-01T06:26:13;28.33;;;18.60;;
18532;SDS011;9396;51.510;11.934;2023-06-01T06:28:39;37.03;;;22.50;;
18532;SDS011;9396;51.510;11.934;2023-06-01T06:31:06;33.37;;;22.17;;
18532;SDS011;9396;51.510;11.934;2023-06-01T06:33:32;34.67;;;21.07;;
18532;SDS011;9396;51.510;11.934;2023-06-01T06:36:01;35.23;;;21.33;;
18532;SDS011;9396;51.510;11.934;2023-06-01T06:38:27;35.10;;;22.67;;
18532;SDS011;9396;51.510;11.934;2023-06-01T06:40:54;33.60;;;22.73;;
18532;SDS011;9396;51.510;11.934;2023-06-01T06:43:22;32.87;;;22.20;;
18532;SDS011;9396;51.510;11.934;2023-06-01T06:45:48;30.83;;;21.90;;
18532;SDS011;9396;51.510;11.934;2023-06-01T06:48:15;36.17;;;23.57;;
18532;SDS011;9396;51.510;11.934;2023-06-01T06:50:42;31.77;;;22.63;;
18532;SDS011;9396;51.510;11.934;2023-06-01T06:53:11;32.90;;;24.10;;
18532;SDS011;9396;51.510;11.934;2023-06-01T06:55:38;33.47;;;23.00;;
18532;SDS011;9396;51.510;11.934;2023-06-01T06:58:04;36.07;;;22.83;;
18532;SDS011;9396;51.510;11.934;2023-06-01T07:00:31;37.67;;;23.17;;
18532;SDS011;9396;51.510;11.934;2023-06-01T07:02:58;32.93;;;23.50;;
18532;SDS011;9396;51.510;11.934;2023-06-01T07:05:25;28.47;;;21.87;;
18532;SDS011;9396;51.510;11.934;2023-06-01T07:07:51;33.97;;;23.13;;
18532;SDS011;9396;51.510;11.934;2023-06-01T07:10:19;31.80;;;24.40;;
18532;SDS011;9396;51.510;11.934;2023-06-01T07:12:46;35.03;;;23.47;;
18532;SDS011;9396;51.510;11.934;2023-06-01T07:15:13;33.50;;;23.33;;
18532;SDS011;9396;51.510;11.934;2023-06-01T07:17:41;33.03;;;23.67;;
18532;SDS011;9396;51.510;11.934;2023-06-01T07:20:08;32.90;;;23.03;;
18532;SDS011;9396;51.510;11.934;2023-06-01T07:22:36;33.03;;;22.13;;
18532;SDS011;9396;51.510;11.934;2023-06-01T07:25:03;33.70;;;22.27;;
18532;SDS011;9396;51.510;11.934;2023-06-01T07:27:31;29.37;;;22.07;;
18532;SDS011;9396;51.510;11.934;2023-06-01T07:30:00;29.90;;;22.40;;
18532;SDS011;9396;51.510;11.934;2023-06-01T07:32:27;29.60;;;22.23;;
18532;SDS011;9396;51.510;11.934;2023-06-01T07:34:53;26.87;;;22.40;;
18532;SDS011;9396;51.510;11.934;2023-06-01T07:37:23;26.10;;;21.47;;
18532;SDS011;9396;51.510;11.934;2023-06-01T07:39:52;26.40;;;21.97;;
18532;SDS011;9396;51.510;11.934;2023-06-01T07:42:18;26.10;;;21.93;;
18532;SDS011;9396;51.510;11.934;2023-06-01T07:44:47;26.90;;;19.97;;
18532;SDS011;9396;51.510;11.934;2023-06-01T07:47:13;20.70;;;17.63;;
18532;SDS011;9396;51.510;11.934;2023-06-01T07:49:40;22.37;;;18.10;;
18532;SDS011;9396;51.510;11.934;2023-06-01T07:52:07;24.40;;;18.27;;
18532;SDS011;9396;51.510;11.934;2023-06-01T07:54:34;24.30;;;18.37;;
18532;SDS011;9396;51.510;11.934;2023-06-01T07:57:01;22.00;;;17.90;;
18532;SDS011;9396;51.510;11.934;2023-06-01T07:59:29;23.10;;;15.60;;
18532;SDS011;9396;51.510;11.934;2023-06-01T08:01:57;25.77;;;18.73;;
18532;SDS011;9396;51.510;11.934;2023-06-01T08:04:25;21.90;;;17.97;;
18532;SDS011;9396;51.510;11.934;2023-06-01T08:06:52;19.93;;;17.70;;
18532;SDS011;9396;51.510;11.934;2023-06-01T08:09:19;22.93;;;17.23;;
18532;SDS011;9396;51.510;11.934;2023-06-01T08:11:46;26.47;;;17.50;;
18532;SDS011;9396;51.510;11.934;2023-06-01T08:14:13;21.37;;;19.03;;
18532;SDS011;9396;51.510;11.934;2023-06-01T08:16:40;25.67;;;17.37;;
18532;SDS011;9396;51.510;11.934;2023-06-01T08:19:08;23.03;;;16.80;;
18532;SDS011;9396;51.510;11.934;2023-06-01T08:21:35;28.00;;;18.70;;
18532;SDS011;9396;51.510;11.934;2023-06-01T08:24:02;20.17;;;17.37;;
18532;SDS011;9396;51.510;11.934;2023-06-01T08:26:29;20.70;;;16.33;;
18532;SDS011;9396;51.510;11.934;2023-06-01T08:28:55;23.03;;;18.03;;
18532;SDS011;9396;51.510;11.934;2023-06-01T08:31:23;27.40;;;17.97;;
18532;SDS011;9396;51.510;11.934;2023-06-01T08:33:51;23.17;;;18.40;;
18532;SDS011;9396;51.510;11.934;2023-06-01T08:36:21;18.67;;;15.67;;
18532;SDS011;9396;51.510;11.934;2023-06-01T08:38:48;21.93;;;19.10;;
18532;SDS011;9396;51.510;11.934;2023-06-01T08:41:17;22.27;;;18.57;;
18532;SDS011;9396;51.510;11.934;2023-06-01T08:43:52;23.70;;;19.53;;
18532;SDS011;9396;51.510;11.934;2023-06-01T08:46:21;24.93;;;21.07;;
18532;SDS011;9396;51.510;11.934;2023-06-01T08:48:48;28.80;;;20.60;;
18532;SDS011;9396;51.510;11.934;2023-06-01T08:51:21;26.00;;;20.17;;
18532;SDS011;9396;51.510;11.934;2023-06-01T08:53:50;26.93;;;19.00;;
18532;SDS011;9396;51.510;11.934;2023-06-01T08:56:17;25.77;;;20.00;;
18532;SDS011;9396;51.510;11.934;2023-06-01T08:58:44;22.77;;;18.20;;
18532;SDS011;9396;51.510;11.934;2023-06-01T09:01:13;25.10;;;19.97;;
18532;SDS011;9396;51.510;11.934;2023-06-01T09:03:46;29.23;;;22.13;;
18532;SDS011;9396;51.510;11.934;2023-06-01T09:06:12;24.10;;;19.33;;
18532;SDS011;9396;51.510;11.934;2023-06-01T09:08:40;29.47;;;19.67;;
18532;SDS011;9396;51.510;11.934;2023-06-01T09:11:07;23.37;;;18.90;;
18532;SDS011;9396;51.510;11.934;2023-06-01T09:13:34;28.10;;;18.73;;
18532;SDS011;9396;51.510;11.934;2023-06-01T09:16:02;27.10;;;19.27;;
18532;SDS011;9396;51.510;11.934;2023-06-01T09:18:28;26.40;;;19.60;;
18532;SDS011;9396;51.510;11.934;2023-06-01T09:20:57;25.77;;;20.27;;
18532;SDS011;9396;51.510;11.934;2023-06-01T09:23:36;24.37;;;19.70;;
18532;SDS011;9396;51.510;11.934;2023-06-01T09:26:05;24.03;;;19.03;;
18532;SDS011;9396;51.510;11.934;2023-06-01T09:31:37;26.67;;;19.90;;
18532;SDS011;9396;51.510;11.934;2023-06-01T09:34:05;28.27;;;20.83;;
18532;SDS011;9396;51.510;11.934;2023-06-01T09:36:32;23.17;;;18.57;;
18532;SDS011;9396;51.510;11.934;2023-06-01T09:39:00;21.00;;;17.90;;
18532;SDS011;9396;51.510;11.934;2023-06-01T09:41:29;23.00;;;19.30;;
18532;SDS011;9396;51.510;11.934;2023-06-01T09:44:10;27.47;;;17.10;;
18532;SDS011;9396;51.510;11.934;2023-06-01T09:46:45;28.90;;;21.30;;
18532;SDS011;9396;51.510;11.934;2023-06-01T09:49:17;23.57;;;18.97;;
18532;SDS011;9396;51.510;11.934;2023-06-01T09:51:45;22.57;;;17.57;;
18532;SDS011;9396;51.510;11.934;2023-06-01T09:54:21;23.40;;;19.53;;
18532;SDS011;9396;51.510;11.934;2023-06-01T09:56:49;27.33;;;20.57;;
18532;SDS011;9396;51.510;11.934;2023-06-01T09:59:17;29.17;;;21.00;;
18532;SDS011;9396;51.510;11.934;2023-06-01T10:01:45;26.87;;;19.93;;
18532;SDS011;9396;51.510;11.934;2023-06-01T10:04:15;25.10;;;20.00;;
18532;SDS011;9396;51.510;11.934;2023-06-01T10:06:46;27.70;;;20.53;;
18532;SDS011;9396;51.510;11.934;2023-06-01T10:09:16;29.00;;;22.37;;
18532;SDS011;9396;51.510;11.934;2023-06-01T10:11:45;27.67;;;20.23;;
18532;SDS011;9396;51.510;11.934;2023-06-01T10:14:13;26.17;;;18.97;;
18532;SDS011;9396;51.510;11.934;2023-06-01T10:16:40;25.60;;;18.67;;
18532;SDS011;9396;51.510;11.934;2023-06-01T10:19:07;24.03;;;17.90;;
18532;SDS011;9396;51.510;11.934;2023-06-01T10:21:34;23.87;;;17.73;;
18532;SDS011;9396;51.510;11.934;2023-06-01T10:24:02;20.57;;;16.20;;
18532;SDS011;9396;51.510;11.934;2023-06-01T10:26:30;23.40;;;16.10;;
18532;SDS011;9396;51.510;11.934;2023-06-01T10:29:02;22.77;;;15.30;;
18532;SDS011;9396;51.510;11.934;2023-06-01T10:31:37;18.77;;;15.20;;
18532;SDS011;9396;51.510;11.934;2023-06-01T10:34:06;21.20;;;14.77;;
18532;SDS011;9396;51.510;11.934;2023-06-01T10:39:38;20.83;;;14.53;;
18532;SDS011;9396;51.510;11.934;2023-06-01T10:48:06;24.03;;;15.60;;
18532;SDS011;9396;51.510;11.934;2023-06-01T10:50:34;19.87;;;15.70;;
18532;SDS011;9396;51.510;11.934;2023-06-01T10:58:45;21.27;;;13.13;;
18532;SDS011;9396;51.510;11.934;2023-06-01T11:01:17;24.30;;;14.80;;
18532;SDS011;9396;51.510;11.934;2023-06-01T11:03:47;18.77;;;14.93;;
18532;SDS011;9396;51.510;11.934;2023-06-01T11:06:25;18.70;;;15.10;;
18532;SDS011;9396;51.510;11.934;2023-06-01T11:08:57;16.30;;;13.30;;
18532;SDS011;9396;51.510;11.934;2023-06-01T11:14:25;17.97;;;12.53;;
18532;SDS011;9396;51.510;11.934;2023-06-01T11:16:55;13.70;;;10.60;;
18532;SDS011;9396;51.510;11.934;2023-06-01T11:19:44;16.03;;;12.70;;
18532;SDS011;9396;51.510;11.934;2023-06-01T11:22:12;16.70;;;13.20;;
18532;SDS011;9396;51.510;11.934;2023-06-01T11:24:39;27.00;;;11.93;;
18532;SDS011;9396;51.510;11.934;2023-06-01T11:27:10;15.20;;;11.40;;
18532;SDS011;9396;51.510;11.934;2023-06-01T11:29:37;15.30;;;12.93;;
18532;SDS011;9396;51.510;11.934;2023-06-01T11:32:05;17.07;;;12.03;;
18532;SDS011;9396;51.510;11.934;2023-06-01T11:34:32;16.23;;;11.30;;
18532;SDS011;9396;51.510;11.934;2023-06-01T11:37:04;15.13;;;11.47;;
18532;SDS011;9396;51.510;11.934;2023-06-01T11:39:32;18.30;;;12.93;;
18532;SDS011;9396;51.510;11.934;2023-06-01T11:42:04;17.37;;;12.13;;
18532;SDS011;9396;51.510;11.934;2023-06-01T11:44:31;14.50;;;12.23;;
18532;SDS011;9396;51.510;11.934;2023-06-01T11:46:59;18.53;;;11.47;;
18532;SDS011;9396;51.510;11.934;2023-06-01T11:49:26;16.37;;;11.70;;
18532;SDS011;9396;51.510;11.934;2023-06-01T11:51:53;19.10;;;12.17;;
18532;SDS011;9396;51.510;11.934;2023-06-01T11:54:27;15.33;;;10.30;;
18532;SDS011;9396;51.510;11.934;2023-06-01T11:56:55;16.70;;;10.70;;
18532;SDS011;9396;51.510;11.934;2023-06-01T11:59:22;15.80;;;11.40;;
18532;SDS011;9396;51.510;11.934;2023-06-01T12:01:49;19.57;;;13.53;;
18532;SDS011;9396;51.510;11.934;2023-06-01T12:04:19;16.80;;;11.87;;
18532;SDS011;9396;51.510;11.934;2023-06-01T12:06:48;15.53;;;11.03;;
18532;SDS011;9396;51.510;11.934;2023-06-01T12:09:16;18.37;;;11.33;;
18532;SDS011;9396;51.510;11.934;2023-06-01T12:11:44;13.23;;;11.10;;
18532;SDS011;9396;51.510;11.934;2023-06-01T12:14:12;15.63;;;11.07;;
18532;SDS011;9396;51.510;11.934;2023-06-01T12:16:53;20.03;;;12.30;;
18532;SDS011;9396;51.510;11.934;2023-06-01T12:19:21;14.70;;;10.93;;
18532;SDS011;9396;51.510;11.934;2023-06-01T12:21:48;12.63;;;9.80;;
18532;SDS011;9396;51.510;11.934;2023-06-01T12:24:16;15.83;;;10.23;;
18532;SDS011;9396;51.510;11.934;2023-06-01T12:26:45;10.73;;;9.23;;
18532;SDS011;9396;51.510;11.934;2023-06-01T12:29:11;12.67;;;9.03;;
18532;SDS011;9396;51.510;11.934;2023-06-01T12:31:38;12.17;;;8.20;;
18532;SDS011;9396;51.510;11.934;2023-06-01T12:34:14;10.47;;;8.43;;
18532;SDS011;9396;51.510;11.934;2023-06-01T12:36:41;9.90;;;7.67;;
18532;SDS011;9396;51.510;11.934;2023-06-01T12:39:08;10.60;;;7.70;;
18532;SDS011;9396;51.510;11.934;2023-06-01T12:41:35;8.30;;;7.40;;
18532;SDS011;9396;51.510;11.934;2023-06-01T12:44:03;9.67;;;7.47;;
18532;SDS011;9396;51.510;11.934;2023-06-01T12:46:30;12.27;;;8.20;;
18532;SDS011;9396;51.510;11.934;2023-06-01T12:49:14;13.10;;;8.57;;
18532;SDS011;9396;51.510;11.934;2023-06-01T12:51:43;11.43;;;8.57;;
18532;SDS011;9396;51.510;11.934;2023-06-01T12:54:09;8.50;;;7.40;;
18532;SDS011;9396;51.510;11.934;2023-06-01T12:56:36;14.13;;;8.93;;
18532;SDS011;9396;51.510;11.934;2023-06-01T12:59:05;10.50;;;8.70;;
18532;SDS011;9396;51.510;11.934;2023-06-01T13:01:32;11.37;;;8.23;;
18532;SDS011;9396;51.510;11.934;2023-06-01T13:03:58;14.60;;;7.87;;
18532;SDS011;9396;51.510;11.934;2023-06-01T13:06:25;11.27;;;8.77;;
18532;SDS011;9396;51.510;11.934;2023-06-01T13:08:52;10.70;;;8.20;;
18532;SDS011;9396;51.510;11.934;2023-06-01T13:11:19;10.50;;;8.30;;
18532;SDS011;9396;51.510;11.934;2023-06-01T13:13:47;10.80;;;8.80;;
18532;SDS011;9396;51.510;11.934;2023-06-01T13:16:15;12.17;;;8.17;;
18532;SDS011;9396;51.510;11.934;2023-06-01T13:18:43;9.13;;;7.73;;
18532;SDS011;9396;51.510;11.934;2023-06-01T13:21:10;13.67;;;8.60;;
18532;SDS011;9396;51.510;11.934;2023-06-01T13:23:37;12.67;;;8.30;;
18532;SDS011;9396;51.510;11.934;2023-06-01T13:26:04;11.73;;;8.60;;
18532;SDS011;9396;51.510;11.934;2023-06-01T13:28:30;11.67;;;8.23;;
18532;SDS011;9396;51.510;11.934;2023-06-01T13:30:57;9.10;;;7.47;;
18532;SDS011;9396;51.510;11.934;2023-06-01T13:33:25;11.73;;;8.03;;
18532;SDS011;9396;51.510;11.934;2023-06-01T13:35:52;15.17;;;7.90;;
18532;SDS011;9396;51.510;11.934;2023-06-01T13:38:18;13.60;;;8.07;;
18532;SDS011;9396;51.510;11.934;2023-06-01T13:40:45;12.10;;;8.77;;
18532;SDS011;9396;51.510;11.934;2023-06-01T13:43:11;15.00;;;9.47;;
18532;SDS011;9396;51.510;11.934;2023-06-01T13:45:38;13.40;;;8.47;;
18532;SDS011;9396;51.510;11.934;2023-06-01T13:48:05;13.63;;;9.27;;
18532;SDS011;9396;51.510;11.934;2023-06-01T13:50:33;17.37;;;10.20;;
18532;SDS011;9396;51.510;11.934;2023-06-01T13:53:00;14.87;;;10.40;;
18532;SDS011;9396;51.510;11.934;2023-06-01T13:55:30;13.43;;;9.80;;
18532;SDS011;9396;51.510;11.934;2023-06-01T13:57:56;15.47;;;10.23;;
18532;SDS011;9396;51.510;11.934;2023-06-01T14:00:23;14.93;;;10.07;;
18532;SDS011;9396;51.510;11.934;2023-06-01T14:02:50;13.13;;;8.77;;
18532;SDS011;9396;51.510;11.934;2023-06-01T14:05:17;12.70;;;9.13;;
18532;SDS011;9396;51.510;11.934;2023-06-01T14:07:45;10.07;;;8.47;;
18532;SDS011;9396;51.510;11.934;2023-06-01T14:10:12;11.53;;;8.57;;
18532;SDS011;9396;51.510;11.934;2023-06-01T14:12:39;15.13;;;9.17;;
18532;SDS011;9396;51.510;11.934;2023-06-01T14:15:07;11.03;;;8.57;;
18532;SDS011;9396;51.510;11.934;2023-06-01T14:17:34;13.13;;;9.23;;
18532;SDS011;9396;51.510;11.934;2023-06-01T14:20:00;16.03;;;9.37;;
18532;SDS011;9396;51.510;11.934;2023-06-01T14:22:28;14.37;;;8.60;;
18532;SDS011;9396;51.510;11.934;2023-06-01T14:24:56;13.80;;;8.50;;
18532;SDS011;9396;51.510;11.934;2023-06-01T14:27:23;12.20;;;7.80;;
18532;SDS011;9396;51.510;11.934;2023-06-01T14:29:50;10.10;;;6.83;;
18532;SDS011;9396;51.510;11.934;2023-06-01T14:32:17;10.23;;;6.43;;
18532;SDS011;9396;51.510;11.934;2023-06-01T14:34:43;12.77;;;5.53;;
18532;SDS011;9396;51.510;11.934;2023-06-01T14:37:10;8.90;;;6.10;;
18532;SDS011;9396;51.510;11.934;2023-06-01T14:39:38;7.97;;;5.30;;
18532;SDS011;9396;51.510;11.934;2023-06-01T14:42:07;11.97;;;6.10;;
18532;SDS011;9396;51.510;11.934;2023-06-01T14:44:33;10.50;;;5.80;;
18532;SDS011;9396;51.510;11.934;2023-06-01T14:47:00;9.37;;;5.80;;
18532;SDS011;9396;51.510;11.934;2023-06-01T14:49:27;9.93;;;6.00;;
18532;SDS011;9396;51.510;11.934;2023-06-01T14:51:53;19.57;;;6.30;;
18532;SDS011;9396;51.510;11.934;2023-06-01T14:54:20;7.87;;;6.63;;
18532;SDS011;9396;51.510;11.934;2023-06-01T14:56:47;9.80;;;6.40;;
18532;SDS011;9396;51.510;11.934;2023-06-01T14:59:16;12.60;;;6.97;;